createdAt,value
2022-11-03T00:00:30.496Z,13.68
2022-11-03T00:03:04.208Z,13.47
2022-11-03T00:05:55.445Z,13.54
2022-11-03T00:08:31.035Z,13.64
2022-11-03T00:11:10.404Z,13.87
2022-11-03T00:13:45.231Z,13.68
2022-11-03T00:16:19.163Z,13.73
2022-11-03T00:18:53.161Z,13.31
2022-11-03T00:21:27.165Z,13.76
2022-11-03T00:24:03.588Z,13.93
2022-11-03T00:26:38.388Z,13.75
2022-11-03T00:29:13.575Z,13.70
2022-11-03T00:31:47.316Z,13.60
2022-11-03T00:34:20.861Z,13.37
2022-11-03T00:36:55.208Z,13.53
2022-11-03T00:39:30.458Z,13.53
2022-11-03T00:42:04.320Z,13.66
2022-11-03T00:44:38.220Z,13.77
2022-11-03T00:47:11.940Z,13.87
2022-11-03T00:49:45.481Z,13.74
2022-11-03T00:52:19.243Z,13.82
2022-11-03T00:54:55.370Z,13.48
2022-11-03T00:57:29.248Z,13.84
2022-11-03T01:00:02.916Z,13.77
2022-11-03T01:02:35.861Z,13.71
2022-11-03T01:05:27.662Z,13.49
2022-11-03T01:11:00.777Z,13.50
2022-11-03T01:13:34.404Z,13.42
2022-11-03T01:16:08.449Z,13.23
2022-11-03T01:18:42.341Z,13.35
2022-11-03T01:21:16.522Z,13.29
2022-11-03T01:23:50.680Z,13.43
2022-11-03T01:26:25.971Z,13.16
2022-11-03T01:29:01.605Z,13.26
2022-11-03T01:31:35.306Z,13.16
2022-11-03T01:34:09.406Z,13.31
2022-11-03T01:36:43.001Z,13.13
2022-11-03T01:39:18.661Z,13.44
2022-11-03T01:41:54.239Z,13.53
2022-11-03T01:44:34.871Z,13.43
2022-11-03T01:47:15.709Z,13.50
2022-11-03T01:49:54.834Z,13.22
2022-11-03T01:52:34.279Z,13.34
2022-11-03T01:55:12.845Z,13.54
2022-11-03T01:57:56.189Z,13.52
2022-11-03T02:00:30.474Z,13.66
2022-11-03T02:03:04.331Z,13.61
2022-11-03T02:05:39.128Z,13.52
2022-11-03T02:08:18.304Z,13.60
2022-11-03T02:10:53.375Z,13.62
2022-11-03T02:13:29.416Z,13.61
2022-11-03T02:16:03.625Z,13.51
2022-11-03T02:18:37.441Z,13.47
2022-11-03T02:21:21.172Z,13.34
2022-11-03T02:24:03.334Z,13.25
2022-11-03T02:26:38.743Z,13.19
2022-11-03T02:29:12.660Z,13.20
2022-11-03T02:31:52.184Z,13.10
2022-11-03T02:34:34.295Z,13.14
2022-11-03T02:37:14.014Z,13.17
2022-11-03T02:39:58.077Z,13.16
2022-11-03T02:42:33.507Z,13.22
2022-11-03T02:45:14.789Z,13.19
2022-11-03T02:47:53.350Z,13.30
2022-11-03T02:50:29.148Z,13.06
2022-11-03T02:53:03.243Z,13.11
2022-11-03T02:55:40.759Z,12.88
2022-11-03T02:58:22.304Z,12.95
2022-11-03T03:01:01.200Z,12.96
2022-11-03T03:03:39.598Z,13.09
2022-11-03T03:06:18.345Z,12.99
2022-11-03T03:09:01.051Z,13.04
2022-11-03T03:11:39.570Z,12.97
2022-11-03T03:14:18.989Z,13.01
2022-11-03T03:17:00.034Z,13.04
2022-11-03T03:19:49.806Z,12.90
2022-11-03T03:22:26.813Z,13.07
2022-11-03T03:25:04.884Z,12.91
2022-11-03T03:27:44.829Z,12.95
2022-11-03T03:30:20.926Z,13.02
2022-11-03T03:32:58.494Z,12.91
2022-11-03T03:35:35.138Z,13.04
2022-11-03T03:38:14.961Z,12.83
2022-11-03T03:40:53.631Z,12.96
2022-11-03T03:43:29.898Z,13.04
2022-11-03T03:46:11.007Z,13.01
2022-11-03T03:48:44.276Z,12.98
2022-11-03T03:51:21.617Z,13.17
2022-11-03T03:53:56.100Z,13.19
2022-11-03T03:56:37.731Z,13.09
2022-11-03T03:59:11.290Z,13.10
2022-11-03T04:01:46.659Z,13.09
2022-11-03T04:04:20.378Z,13.04
2022-11-03T04:07:14.921Z,13.07
2022-11-03T04:09:48.509Z,13.08
2022-11-03T04:12:39.553Z,12.98
2022-11-03T04:15:32.005Z,13.08
2022-11-03T04:18:24.554Z,13.07
2022-11-03T04:21:15.375Z,13.16
2022-11-03T04:23:48.302Z,13.03
2022-11-03T04:26:24.578Z,13.00
2022-11-03T04:28:59.725Z,12.94
2022-11-03T04:31:36.690Z,12.93
2022-11-03T04:34:14.718Z,12.86
2022-11-03T04:36:48.273Z,12.81
2022-11-03T04:39:22.111Z,12.76
2022-11-03T04:41:55.653Z,12.66
2022-11-03T04:44:29.903Z,12.76
2022-11-03T04:47:03.534Z,12.75
2022-11-03T04:49:38.838Z,12.73
2022-11-03T04:52:16.926Z,12.56
2022-11-03T04:54:54.447Z,12.83
2022-11-03T04:57:29.982Z,12.77
2022-11-03T05:00:04.051Z,12.81
2022-11-03T05:02:37.704Z,12.86
2022-11-03T05:05:19.313Z,12.85
2022-11-03T05:07:55.591Z,12.77
2022-11-03T05:10:31.534Z,12.66
2022-11-03T05:13:05.667Z,12.80
2022-11-03T05:15:44.439Z,12.68
2022-11-03T05:18:21.685Z,12.76
2022-11-03T05:20:59.911Z,12.52
2022-11-03T05:23:41.528Z,12.76
2022-11-03T05:26:19.603Z,12.75
2022-11-03T05:28:56.546Z,12.77
2022-11-03T05:31:31.969Z,12.71
2022-11-03T05:34:29.750Z,12.81
2022-11-03T05:37:29.317Z,12.69
2022-11-03T05:40:08.622Z,12.78
2022-11-03T05:42:46.644Z,12.66
2022-11-03T05:45:24.382Z,12.63
2022-11-03T05:47:58.477Z,12.53
2022-11-03T05:50:36.105Z,12.51
2022-11-03T05:53:27.454Z,12.42
2022-11-03T05:56:03.917Z,12.63
2022-11-03T05:58:40.183Z,12.59
2022-11-03T06:01:18.263Z,12.68
2022-11-03T06:03:51.739Z,12.63
2022-11-03T06:06:32.489Z,12.70
2022-11-03T06:09:15.009Z,12.54
2022-11-03T06:11:48.860Z,12.54
2022-11-03T06:14:25.030Z,12.55
2022-11-03T06:17:00.071Z,12.49
2022-11-03T06:19:37.227Z,12.76
2022-11-03T06:22:17.102Z,12.31
2022-11-03T06:24:52.773Z,12.52
2022-11-03T06:27:30.912Z,12.48
2022-11-03T06:30:21.108Z,12.61
2022-11-03T06:32:56.637Z,12.45
2022-11-03T06:35:30.669Z,12.29
2022-11-03T06:38:04.658Z,12.44
2022-11-03T06:40:40.418Z,12.29
2022-11-03T06:43:22.044Z,12.43
2022-11-03T06:45:58.855Z,12.47
2022-11-03T06:48:36.831Z,12.46
2022-11-03T06:51:17.992Z,12.43
2022-11-03T06:53:53.847Z,12.35
2022-11-03T06:56:33.547Z,12.39
2022-11-03T06:59:12.245Z,12.38
2022-11-03T07:01:49.041Z,12.52
2022-11-03T07:04:25.265Z,12.52
2022-11-03T07:07:04.314Z,12.43
2022-11-03T07:09:38.025Z,12.39
2022-11-03T07:12:18.855Z,12.42
2022-11-03T07:14:52.445Z,12.54
2022-11-03T07:17:26.266Z,12.42
2022-11-03T07:20:00.516Z,12.41
2022-11-03T07:22:35.748Z,12.46
2022-11-03T07:25:17.681Z,12.51
2022-11-03T07:27:54.676Z,12.53
2022-11-03T07:30:32.663Z,12.57
2022-11-03T07:33:16.963Z,12.55
2022-11-03T07:36:14.501Z,12.44
2022-11-03T07:38:46.457Z,12.46
2022-11-03T07:41:22.415Z,12.55
2022-11-03T07:43:58.945Z,12.60
2022-11-03T07:46:33.011Z,12.30
2022-11-03T07:49:09.059Z,12.48
2022-11-03T07:51:43.005Z,12.67
2022-11-03T07:54:20.663Z,12.61
2022-11-03T07:56:57.559Z,12.75
2022-11-03T07:59:37.344Z,12.79
2022-11-03T08:02:27.826Z,12.54
2022-11-03T08:05:01.244Z,12.72
2022-11-03T08:07:34.764Z,12.76
2022-11-03T08:10:08.385Z,12.90
2022-11-03T08:12:41.160Z,12.95
2022-11-03T08:15:16.550Z,12.96
2022-11-03T08:17:53.516Z,13.01
2022-11-03T08:20:29.400Z,12.86
2022-11-03T08:23:24.791Z,13.14
2022-11-03T08:25:56.262Z,13.25
2022-11-03T08:28:30.310Z,13.25
2022-11-03T08:31:11.224Z,13.37
2022-11-03T08:33:45.793Z,13.34
2022-11-03T08:36:20.013Z,13.41
2022-11-03T08:38:53.859Z,13.43
2022-11-03T08:41:26.791Z,13.59
2022-11-03T08:44:00.519Z,13.32
2022-11-03T08:46:35.311Z,13.45
2022-11-03T08:49:08.112Z,13.62
2022-11-03T08:51:44.688Z,13.41
2022-11-03T08:54:17.715Z,13.37
2022-11-03T08:56:50.575Z,13.52
2022-11-03T08:59:23.429Z,13.28
2022-11-03T09:01:57.968Z,13.32
2022-11-03T09:04:30.839Z,13.48
2022-11-03T09:07:03.757Z,13.74
2022-11-03T09:12:29.475Z,14.18
2022-11-03T09:15:02.345Z,14.09
2022-11-03T09:17:38.523Z,14.12
2022-11-03T09:20:14.632Z,14.16
2022-11-03T09:22:47.505Z,14.05
2022-11-03T09:25:20.710Z,13.89
2022-11-03T09:27:53.985Z,13.95
2022-11-03T09:30:27.647Z,14.03
2022-11-03T09:33:04.408Z,14.61
2022-11-03T09:35:38.001Z,14.77
2022-11-03T09:38:11.642Z,15.54
2022-11-03T09:40:44.553Z,16.19
2022-11-03T09:43:18.369Z,16.76
2022-11-03T09:45:51.317Z,16.98
2022-11-03T09:48:25.995Z,17.04
2022-11-03T09:50:59.124Z,17.10
2022-11-03T09:53:32.463Z,16.97
2022-11-03T09:56:06.459Z,16.67
2022-11-03T09:58:40.536Z,16.44
2022-11-03T10:01:13.764Z,17.16
2022-11-03T10:03:48.201Z,17.56
2022-11-03T10:06:21.721Z,17.27
2022-11-03T10:08:54.597Z,16.35
2022-11-03T10:11:28.263Z,15.38
2022-11-03T10:14:02.507Z,15.28
2022-11-03T10:16:37.439Z,15.29
2022-11-03T10:19:14.353Z,15.56
2022-11-03T10:21:47.376Z,15.22
2022-11-03T10:24:20.371Z,15.17
2022-11-03T10:26:55.937Z,15.01
2022-11-03T10:29:32.435Z,14.78
2022-11-03T10:32:30.889Z,15.03
2022-11-03T10:35:35.136Z,15.15
2022-11-03T10:38:25.660Z,15.27
2022-11-03T10:41:11.615Z,15.49
2022-11-03T10:43:45.731Z,15.41
2022-11-03T10:46:44.734Z,15.98
2022-11-03T10:49:18.362Z,16.35
2022-11-03T10:51:54.229Z,16.36
2022-11-03T10:54:27.086Z,16.32
2022-11-03T10:56:59.934Z,16.66
2022-11-03T10:59:36.860Z,16.81
2022-11-03T11:02:18.566Z,16.54
2022-11-03T11:05:00.770Z,16.36
2022-11-03T11:07:39.886Z,16.03
2022-11-03T11:10:17.996Z,16.03
2022-11-03T11:13:08.345Z,16.30
2022-11-03T11:15:43.328Z,16.23
2022-11-03T11:19:14.432Z,16.21
2022-11-03T11:22:03.930Z,16.37
2022-11-03T11:25:02.393Z,16.20
2022-11-03T11:27:58.645Z,16.37
2022-11-03T11:30:58.925Z,16.20
2022-11-03T11:33:34.468Z,15.59
2022-11-03T11:36:28.550Z,16.31
2022-11-03T11:39:05.083Z,16.61
2022-11-03T11:42:10.397Z,16.69
2022-11-03T11:44:55.780Z,16.13
2022-11-03T11:47:50.271Z,16.09
2022-11-03T11:50:27.875Z,16.11
2022-11-03T11:53:11.483Z,16.32
2022-11-03T11:55:51.108Z,16.01
2022-11-03T11:58:36.419Z,16.15
2022-11-03T12:01:23.518Z,16.17
2022-11-03T12:03:58.710Z,15.98
2022-11-03T12:06:35.557Z,16.53
2022-11-03T12:09:10.874Z,16.55
2022-11-03T12:11:47.611Z,16.00
2022-11-03T12:14:33.683Z,16.45
2022-11-03T12:17:35.893Z,16.65
2022-11-03T12:20:35.824Z,17.04
2022-11-03T12:23:08.652Z,17.14
2022-11-03T12:25:41.574Z,17.44
2022-11-03T12:28:31.699Z,17.66
2022-11-03T12:31:05.164Z,18.14
2022-11-03T12:33:37.983Z,18.56
2022-11-03T12:36:11.377Z,19.08
2022-11-03T12:38:44.288Z,19.64
2022-11-03T12:41:24.533Z,19.62
2022-11-03T12:43:58.782Z,19.90
2022-11-03T12:46:31.823Z,19.60
2022-11-03T12:49:04.648Z,19.21
2022-11-03T12:51:37.522Z,18.88
2022-11-03T12:54:10.445Z,18.86
2022-11-03T12:56:43.324Z,18.85
2022-11-03T12:59:17.600Z,18.52
2022-11-03T13:01:50.608Z,18.02
2022-11-03T13:04:23.536Z,18.02
2022-11-03T13:06:56.446Z,18.22
2022-11-03T13:09:29.223Z,18.27
2022-11-03T13:12:19.774Z,17.70
2022-11-03T13:14:54.199Z,16.95
2022-11-03T13:17:35.818Z,16.99
2022-11-03T13:20:18.792Z,17.58
2022-11-03T13:22:51.927Z,17.94
2022-11-03T13:25:25.309Z,17.85
2022-11-03T13:27:58.703Z,17.38
2022-11-03T13:30:33.723Z,16.88
2022-11-03T13:33:07.012Z,16.77
2022-11-03T13:35:40.141Z,16.71
2022-11-03T13:38:13.176Z,16.75
2022-11-03T13:41:08.002Z,16.90
2022-11-03T13:43:38.984Z,17.01
2022-11-03T13:46:13.722Z,16.63
2022-11-03T13:51:39.446Z,16.14
2022-11-03T14:00:03.603Z,15.77
2022-11-03T14:05:32.497Z,16.44
2022-11-03T14:08:06.006Z,16.34
2022-11-03T14:10:39.139Z,16.18
2022-11-03T14:13:11.868Z,15.80
2022-11-03T14:15:44.903Z,15.63
2022-11-03T14:18:19.528Z,15.49
2022-11-03T14:20:52.559Z,15.60
2022-11-03T14:23:25.404Z,15.68
2022-11-03T14:26:13.056Z,15.66
2022-11-03T14:28:51.210Z,15.68
2022-11-03T14:31:24.114Z,15.63
2022-11-03T14:33:58.568Z,15.61
2022-11-03T14:36:31.525Z,15.55
2022-11-03T14:39:04.612Z,15.49
2022-11-03T14:41:55.164Z,15.50
2022-11-03T14:44:28.062Z,15.53
2022-11-03T14:47:02.509Z,15.46
2022-11-03T14:49:37.248Z,15.55
2022-11-03T14:52:10.212Z,15.62
2022-11-03T14:54:43.777Z,15.73
2022-11-03T14:57:16.774Z,15.70
2022-11-03T14:59:53.397Z,15.87
2022-11-03T15:02:26.704Z,15.89
2022-11-03T15:05:01.222Z,16.02
2022-11-03T15:07:34.159Z,16.29
2022-11-03T15:10:07.412Z,15.95
2022-11-03T15:12:40.707Z,15.90
2022-11-03T15:15:13.952Z,15.81
2022-11-03T15:17:47.031Z,15.73
2022-11-03T15:20:21.207Z,16.26
2022-11-03T15:25:46.900Z,15.70
2022-11-03T15:28:21.225Z,15.73
2022-11-03T15:30:54.069Z,15.56
2022-11-03T15:33:26.998Z,15.38
2022-11-03T15:36:01.841Z,15.57
2022-11-03T15:38:34.884Z,15.46
2022-11-03T15:41:20.033Z,15.45
2022-11-03T15:43:52.856Z,15.30
2022-11-03T15:46:26.390Z,15.04
2022-11-03T15:49:00.342Z,14.88
2022-11-03T15:51:34.873Z,14.67
2022-11-03T15:54:08.257Z,14.57
2022-11-03T15:56:41.831Z,14.40
2022-11-03T15:59:14.635Z,14.24
2022-11-03T16:01:47.735Z,14.10
2022-11-03T16:04:20.623Z,14.03
2022-11-03T16:07:07.832Z,13.90
2022-11-03T16:09:43.582Z,13.67
2022-11-03T16:12:16.465Z,13.57
2022-11-03T16:14:49.294Z,13.53
2022-11-03T16:17:22.998Z,13.54
2022-11-03T16:19:55.807Z,13.47
2022-11-03T16:22:29.965Z,13.44
2022-11-03T16:25:04.047Z,13.38
2022-11-03T16:27:38.183Z,13.38
2022-11-03T16:30:12.912Z,13.29
2022-11-03T16:32:45.762Z,13.20
2022-11-03T16:35:18.611Z,13.08
2022-11-03T16:37:52.798Z,12.96
2022-11-03T16:40:25.678Z,12.81
2022-11-03T16:42:58.672Z,12.71
2022-11-03T16:45:37.247Z,12.58
2022-11-03T16:48:11.564Z,12.38
2022-11-03T16:50:45.056Z,12.26
2022-11-03T16:53:20.186Z,12.12
2022-11-03T16:55:53.070Z,11.98
2022-11-03T16:58:25.869Z,11.96
2022-11-03T17:00:58.833Z,12.01
2022-11-03T17:03:31.817Z,12.05
2022-11-03T17:06:04.646Z,12.06
2022-11-03T17:08:52.216Z,12.00
2022-11-03T17:11:38.039Z,11.77
2022-11-03T17:14:14.721Z,11.84
2022-11-03T17:16:48.612Z,11.82
2022-11-03T17:19:22.191Z,11.84
2022-11-03T17:21:55.151Z,11.86
2022-11-03T17:24:29.366Z,11.88
2022-11-03T17:27:05.454Z,11.86
2022-11-03T17:29:41.885Z,11.83
2022-11-03T17:32:20.634Z,11.78
2022-11-03T17:34:54.922Z,11.76
2022-11-03T17:37:29.592Z,11.71
2022-11-03T17:40:04.259Z,11.65
2022-11-03T17:42:37.804Z,11.63
2022-11-03T17:45:13.942Z,11.62
2022-11-03T17:47:47.115Z,11.50
2022-11-03T17:50:22.275Z,11.41
2022-11-03T17:52:55.638Z,11.27
2022-11-03T17:55:32.529Z,11.16
2022-11-03T17:58:06.952Z,11.00
2022-11-03T18:00:40.696Z,11.01
2022-11-03T18:03:16.168Z,10.93
2022-11-03T18:05:49.738Z,10.91
2022-11-03T18:08:23.544Z,10.93
2022-11-03T18:10:57.732Z,10.85
2022-11-03T18:13:34.481Z,10.82
2022-11-03T18:16:11.478Z,10.82
2022-11-03T18:18:46.523Z,10.85
2022-11-03T18:21:23.533Z,10.84
2022-11-03T18:23:56.441Z,10.90
2022-11-03T18:26:30.597Z,10.93
2022-11-03T18:29:03.486Z,10.99
2022-11-03T18:31:38.937Z,10.95
2022-11-03T18:34:16.070Z,10.99
2022-11-03T18:36:49.907Z,10.96
2022-11-03T18:39:26.555Z,10.95
2022-11-03T18:42:00.948Z,10.95
2022-11-03T18:44:36.109Z,10.98
2022-11-03T18:47:09.688Z,10.98
2022-11-03T18:49:43.983Z,10.95
2022-11-03T18:52:19.420Z,10.95
2022-11-03T18:54:54.207Z,10.94
2022-11-03T18:57:29.347Z,10.97
2022-11-03T19:00:03.177Z,10.99
2022-11-03T19:02:36.790Z,11.01
2022-11-03T19:05:13.745Z,10.97
2022-11-03T19:07:49.125Z,11.00
2022-11-03T19:10:24.950Z,10.98
2022-11-03T19:12:59.222Z,10.96
2022-11-03T19:15:32.295Z,11.00
2022-11-03T19:18:06.529Z,11.02
2022-11-03T19:20:40.911Z,10.99
2022-11-03T19:23:14.558Z,10.90
2022-11-03T19:25:50.518Z,10.86
2022-11-03T19:28:25.991Z,10.88
2022-11-03T19:30:59.097Z,10.96
2022-11-03T19:33:33.012Z,10.94
2022-11-03T19:36:07.091Z,11.00
2022-11-03T19:38:40.766Z,11.05
2022-11-03T19:41:34.982Z,11.08
2022-11-03T19:44:13.391Z,11.11
2022-11-03T19:46:47.608Z,11.14
2022-11-03T19:49:20.904Z,11.17
2022-11-03T19:51:54.757Z,11.21
2022-11-03T19:54:29.570Z,11.20
2022-11-03T19:57:03.282Z,11.17
2022-11-03T19:59:38.269Z,11.24
2022-11-03T20:02:12.375Z,11.26
2022-11-03T20:04:47.342Z,11.30
2022-11-03T20:07:20.268Z,11.27
2022-11-03T20:09:53.181Z,11.29
2022-11-03T20:12:27.027Z,11.29
2022-11-03T20:15:02.147Z,11.30
2022-11-03T20:17:35.828Z,11.33
2022-11-03T20:20:13.049Z,11.37
2022-11-03T20:22:49.864Z,11.44
2022-11-03T20:25:25.970Z,11.46
2022-11-03T20:28:00.294Z,11.44
2022-11-03T20:30:34.492Z,11.47
2022-11-03T20:33:11.362Z,11.45
2022-11-03T20:35:46.089Z,11.38
2022-11-03T20:38:22.214Z,11.28
2022-11-03T20:40:58.861Z,11.19
2022-11-03T20:43:34.165Z,11.12
2022-11-03T20:46:22.034Z,11.14
2022-11-03T20:48:56.966Z,11.21
2022-11-03T20:51:34.299Z,11.18
2022-11-03T20:54:15.681Z,11.08
2022-11-03T20:56:49.900Z,10.98
2022-11-03T20:59:25.064Z,10.95
2022-11-03T21:02:00.667Z,10.92
2022-11-03T21:04:34.661Z,11.01
2022-11-03T21:07:08.594Z,11.01
2022-11-03T21:09:43.826Z,11.07
2022-11-03T21:12:17.455Z,11.16
2022-11-03T21:15:16.639Z,11.15
2022-11-03T21:18:08.725Z,11.21
2022-11-03T21:20:41.602Z,11.30
2022-11-03T21:23:22.291Z,11.32
2022-11-03T21:25:56.227Z,11.33
2022-11-03T21:28:29.786Z,11.25
2022-11-03T21:31:02.792Z,11.12
2022-11-03T21:33:37.405Z,11.03
2022-11-03T21:36:11.613Z,11.10
2022-11-03T21:38:45.218Z,11.03
2022-11-03T21:41:35.712Z,10.98
2022-11-03T21:44:18.873Z,10.93
2022-11-03T21:46:52.828Z,10.91
2022-11-03T21:49:45.448Z,10.79
2022-11-03T21:52:32.096Z,10.79
2022-11-03T21:55:07.393Z,10.76
2022-11-03T21:57:41.194Z,10.66
2022-11-03T22:00:15.505Z,10.61
2022-11-03T22:02:48.449Z,10.46
2022-11-03T22:05:23.428Z,10.41
2022-11-03T22:07:58.388Z,10.38
2022-11-03T22:10:32.157Z,10.35
2022-11-03T22:13:06.312Z,10.30
2022-11-03T22:15:57.596Z,10.21
2022-11-03T22:18:31.273Z,10.18
2022-11-03T22:21:23.470Z,10.15
2022-11-03T22:24:22.599Z,10.05
2022-11-03T22:27:00.063Z,10.02
2022-11-03T22:29:51.028Z,9.96
2022-11-03T22:32:24.869Z,9.88
2022-11-03T22:35:16.415Z,9.86
2022-11-03T22:38:02.999Z,9.77
2022-11-03T22:40:55.088Z,9.74
2022-11-03T22:43:46.206Z,9.69
2022-11-03T22:46:21.280Z,9.60
2022-11-03T22:48:55.219Z,9.53
2022-11-03T22:51:28.798Z,9.41
2022-11-03T22:54:12.031Z,9.37
2022-11-03T22:56:45.752Z,9.30
2022-11-03T22:59:19.387Z,9.25
2022-11-03T23:01:53.350Z,9.24
2022-11-03T23:04:26.985Z,9.17
2022-11-03T23:07:00.644Z,9.14
2022-11-03T23:09:35.346Z,9.17
2022-11-03T23:12:09.078Z,9.15
2022-11-03T23:15:00.046Z,9.12
2022-11-03T23:17:47.864Z,9.12
2022-11-03T23:20:38.221Z,9.06
2022-11-03T23:23:32.117Z,8.95
2022-11-03T23:26:09.060Z,8.92
2022-11-03T23:28:43.231Z,8.98
2022-11-03T23:31:17.446Z,8.92
2022-11-03T23:33:51.319Z,8.94
2022-11-03T23:36:24.865Z,8.87
2022-11-03T23:38:59.774Z,8.84
2022-11-03T23:41:35.473Z,8.79
2022-11-03T23:44:09.496Z,8.79
2022-11-03T23:47:00.654Z,8.74
2022-11-03T23:49:33.607Z,8.65
2022-11-03T23:52:06.509Z,8.67
2022-11-03T23:54:41.567Z,8.55
2022-11-03T23:57:33.491Z,8.54
